Time;durP1;ratioP1;P1;durP2;ratioP2;P2;SDS_P1;SDS_P2;PMS_P1;PMS_P2;Temp;Humidity;BMP_temperature;BMP_pressure;BME280_temperature;BME280_humidity;BME280_pressure;Samples;Min_cycle;Max_cycle;Signal;HPM_P1;HPM_P2
2022/04/16 00:02:03;;;;;;;10.80;8.80;;;13.70;62.50;;;;;;5068409;28;20040;-81
2022/04/16 00:04:30;;;;;;;10.43;9.32;;;13.70;62.60;;;;;;5083079;28;20502;-82
2022/04/16 00:06:57;;;;;;;11.10;8.82;;;13.70;62.70;;;;;;5083360;28;20155;-82
2022/04/16 00:09:23;;;;;;;11.77;8.75;;;13.70;62.70;;;;;;5082341;28;20123;-80
2022/04/16 00:11:49;;;;;;;10.07;8.32;;;13.70;62.70;;;;;;5066099;28;20398;-82
2022/04/16 00:14:15;;;;;;;10.27;8.52;;;13.70;62.80;;;;;;5076246;28;20036;-81
2022/04/16 00:16:43;;;;;;;9.80;8.77;;;13.70;62.90;;;;;;5083398;28;20078;-80
2022/04/16 00:19:11;;;;;;;11.70;8.68;;;13.70;62.90;;;;;;5082019;28;20032;-82
2022/04/16 00:21:38;;;;;;;10.63;8.68;;;13.70;62.90;;;;;;5081563;28;20040;-81
2022/04/16 00:24:05;;;;;;;9.93;8.13;;;13.70;63.00;;;;;;5085347;28;20031;-79
2022/04/16 00:26:31;;;;;;;10.30;7.88;;;13.70;63.00;;;;;;5084716;28;20040;-81
2022/04/16 00:28:59;;;;;;;11.40;9.10;;;13.70;63.10;;;;;;5083480;28;21373;-81
2022/04/16 00:31:28;;;;;;;9.73;8.73;;;13.70;63.00;;;;;;5091542;28;20025;-83
2022/04/16 00:33:54;;;;;;;11.40;9.18;;;13.60;63.10;;;;;;5068130;28;20059;-81
2022/04/16 00:36:20;;;;;;;10.15;7.97;;;13.60;63.10;;;;;;5081894;28;20048;-82
2022/04/16 00:38:46;;;;;;;10.25;8.50;;;13.60;63.10;;;;;;5083220;28;20097;-83
2022/04/16 00:41:12;;;;;;;9.38;8.27;;;13.60;63.10;;;;;;5067681;28;20040;-83
2022/04/16 00:43:39;;;;;;;8.95;8.02;;;13.60;63.10;;;;;;5083998;28;20032;-82
2022/04/16 00:46:05;;;;;;;10.63;8.45;;;13.60;63.10;;;;;;5082574;28;20028;-82
2022/04/16 00:48:31;;;;;;;10.32;8.10;;;13.60;63.20;;;;;;5080529;28;20064;-83
2022/04/16 00:50:57;;;;;;;10.48;8.23;;;13.60;63.20;;;;;;5080683;28;20677;-83
2022/04/16 00:53:27;;;;;;;10.52;8.48;;;13.60;63.50;;;;;;5081772;28;20089;-84
2022/04/16 00:55:53;;;;;;;8.90;8.00;;;13.60;63.30;;;;;;5065617;28;20044;-83
2022/04/16 00:58:19;;;;;;;9.07;7.53;;;13.60;63.30;;;;;;5081946;28;20040;-83
2022/04/16 01:00:45;;;;;;;8.82;7.82;;;13.60;63.30;;;;;;5081331;28;20047;-83
2022/04/16 01:03:12;;;;;;;8.98;7.30;;;13.60;63.30;;;;;;5079419;28;20040;-83
2022/04/16 01:05:38;;;;;;;9.20;7.25;;;13.60;63.30;;;;;;5066493;28;20062;-82
2022/04/16 01:08:04;;;;;;;8.48;6.78;;;13.60;63.30;;;;;;5080397;28;20036;-82
2022/04/16 01:10:33;;;;;;;6.82;6.05;;;13.50;63.20;;;;;;5084326;28;20066;-82
2022/04/16 01:13:05;;;;;;;6.15;5.65;;;13.60;63.20;;;;;;5076050;28;20578;-83
2022/04/16 01:15:31;;;;;;;6.53;5.35;;;13.50;63.10;;;;;;5065098;28;20045;-84
2022/04/16 01:17:59;;;;;;;6.03;5.43;;;13.50;63.00;;;;;;5081848;28;20036;-88
2022/04/16 01:20:25;;;;;;;6.38;4.65;;;13.50;62.90;;;;;;5084875;28;20084;-88
2022/04/16 01:22:52;;;;;;;4.45;3.92;;;13.50;62.80;;;;;;5114808;27;20028;-89
2022/04/16 01:25:19;;;;;;;4.03;3.63;;;13.40;62.70;;;;;;5067459;28;20136;-89
2022/04/16 01:27:48;;;;;;;3.50;3.20;;;13.40;62.60;;;;;;5071026;28;20132;-86
2022/04/16 01:30:17;;;;;;;3.72;3.25;;;13.40;62.60;;;;;;5083740;28;20067;-88
2022/04/16 01:32:43;;;;;;;3.83;3.42;;;13.40;62.50;;;;;;5081055;28;20060;-90
2022/04/16 01:35:11;;;;;;;3.10;2.90;;;13.40;62.40;;;;;;5073997;28;20044;-90
2022/04/16 01:37:37;;;;;;;3.67;3.17;;;13.30;62.30;;;;;;5083389;28;20036;-85
2022/04/16 01:40:11;;;;;;;2.70;2.50;;;13.30;62.20;;;;;;5086847;28;20035;-88
2022/04/16 01:42:38;;;;;;;2.50;2.30;;;13.30;62.10;;;;;;5085345;28;20113;-86
2022/04/16 01:45:11;;;;;;;3.63;2.33;;;13.30;62.00;;;;;;5090619;28;20054;-89
2022/04/16 01:47:38;;;;;;;3.33;2.10;;;13.30;61.90;;;;;;5088880;28;20040;-89
2022/04/16 01:50:09;;;;;;;2.03;1.80;;;13.20;61.70;;;;;;5074890;28;20033;-88
2022/04/16 01:52:39;;;;;;;2.20;2.05;;;13.20;61.60;;;;;;5064307;28;20064;-88
2022/04/16 01:55:06;;;;;;;1.75;1.65;;;13.20;61.50;;;;;;5090877;28;20089;-88
2022/04/16 01:57:32;;;;;;;1.92;1.83;;;13.10;61.40;;;;;;5106302;28;20032;-86
2022/04/16 01:59:58;;;;;;;2.10;1.90;;;13.10;61.20;;;;;;5122196;28;20024;-87
2022/04/16 02:02:24;;;;;;;1.67;1.58;;;13.10;61.00;;;;;;5089495;28;20404;-88
2022/04/16 02:04:51;;;;;;;1.77;1.67;;;13.10;60.90;;;;;;5091443;28;20070;-90
2022/04/16 02:07:17;;;;;;;2.15;1.95;;;13.00;60.70;;;;;;5073879;28;20038;-88
2022/04/16 02:09:43;;;;;;;1.55;1.45;;;13.00;60.60;;;;;;5085354;28;20036;-89
2022/04/16 02:12:09;;;;;;;1.58;1.30;;;13.00;60.60;;;;;;5072106;28;20484;-91
2022/04/16 02:14:36;;;;;;;1.80;1.40;;;13.00;60.50;;;;;;5055111;28;20386;-92
2022/04/16 02:17:03;;;;;;;3.28;1.60;;;13.00;60.40;;;;;;5089002;28;20559;-92
2022/04/16 02:19:29;;;;;;;2.03;1.83;;;12.90;60.30;;;;;;5083668;28;20045;-92
2022/04/16 02:21:55;;;;;;;2.72;1.30;;;12.90;60.30;;;;;;5065862;28;20037;-93
2022/04/16 02:24:21;;;;;;;1.67;1.58;;;12.90;60.20;;;;;;5067784;28;20127;-85
2022/04/16 02:26:47;;;;;;;1.45;1.30;;;12.90;60.10;;;;;;5108046;28;20086;-90
2022/04/16 02:29:13;;;;;;;2.38;1.65;;;12.90;60.00;;;;;;5111091;28;20088;-82
2022/04/16 02:31:40;;;;;;;2.10;1.38;;;12.80;60.00;;;;;;5107176;28;20032;-85
2022/04/16 02:34:07;;;;;;;1.92;1.80;;;12.80;59.90;;;;;;5074407;28;20047;-91
2022/04/16 02:36:34;;;;;;;1.55;1.45;;;12.80;59.80;;;;;;5093632;28;20119;-86
2022/04/16 02:39:01;;;;;;;1.30;1.20;;;12.80;59.80;;;;;;5085391;28;20035;-87
2022/04/16 02:41:27;;;;;;;2.22;1.30;;;12.70;59.70;;;;;;5059209;28;20108;-90
2022/04/16 02:43:58;;;;;;;1.63;1.23;;;12.70;59.60;;;;;;5068984;28;20068;-87
2022/04/16 02:49:10;;;;;;;0.95;0.90;;;12.70;59.50;;;;;;5087289;28;20044;-89
2022/04/16 02:51:37;;;;;;;2.03;1.15;;;12.60;59.40;;;;;;5080944;28;20031;-90
2022/04/16 02:54:03;;;;;;;1.27;1.17;;;12.60;59.40;;;;;;5083571;28;20024;-87
2022/04/16 02:56:29;;;;;;;1.05;1.05;;;12.50;59.30;;;;;;5076559;28;20033;-86
2022/04/16 02:58:55;;;;;;;1.33;1.00;;;12.60;59.30;;;;;;5089192;28;20071;-89
2022/04/16 03:01:21;;;;;;;0.70;0.70;;;12.50;59.10;;;;;;5080897;28;20028;-88
2022/04/16 03:03:47;;;;;;;0.98;0.80;;;12.50;59.00;;;;;;5073973;28;20523;-90
2022/04/16 03:06:13;;;;;;;1.40;0.93;;;12.40;58.90;;;;;;5063920;28;20039;-87
2022/04/16 03:08:39;;;;;;;0.95;0.95;;;12.40;58.90;;;;;;5084586;28;20033;-89
2022/04/16 03:11:05;;;;;;;0.65;0.65;;;12.40;58.90;;;;;;5088527;28;20040;-88
2022/04/16 03:13:34;;;;;;;0.80;0.80;;;12.30;58.70;;;;;;5108963;28;20074;-87
2022/04/16 03:18:46;;;;;;;1.40;0.73;;;12.30;58.60;;;;;;5094343;28;20106;-93
2022/04/16 03:21:12;;;;;;;0.57;0.57;;;12.30;58.50;;;;;;5088650;28;20051;-93
2022/04/16 03:23:39;;;;;;;0.90;0.90;;;12.30;58.50;;;;;;5107564;28;20032;-93
2022/04/16 03:26:05;;;;;;;1.02;0.63;;;12.30;58.40;;;;;;5071751;28;20033;-94
2022/04/16 03:28:34;;;;;;;0.70;0.70;;;12.20;58.40;;;;;;5065114;28;20502;-93
2022/04/16 03:31:00;;;;;;;0.45;0.45;;;12.20;58.30;;;;;;5069472;28;20037;-88
2022/04/16 03:33:26;;;;;;;1.27;0.60;;;12.20;58.30;;;;;;5058792;28;20033;-87
2022/04/16 03:35:52;;;;;;;1.23;0.82;;;12.20;58.30;;;;;;5104867;28;20036;-87
2022/04/16 03:38:19;;;;;;;1.65;0.70;;;12.10;58.20;;;;;;5101880;28;20024;-84
2022/04/16 03:40:48;;;;;;;2.33;0.90;;;12.10;58.20;;;;;;5087504;28;20052;-90
2022/04/16 03:43:14;;;;;;;2.55;1.15;;;12.10;58.20;;;;;;5080740;28;20048;-86
2022/04/16 03:45:40;;;;;;;0.98;0.80;;;12.10;58.20;;;;;;5072988;28;20308;-90
2022/04/16 03:48:07;;;;;;;1.40;0.77;;;12.00;58.10;;;;;;5069157;28;20469;-89
2022/04/16 03:50:34;;;;;;;3.20;0.85;;;12.00;58.10;;;;;;5085082;28;20039;-86
2022/04/16 03:53:01;;;;;;;1.20;0.77;;;12.00;58.10;;;;;;5068962;28;20082;-88
2022/04/16 04:01:01;;;;;;;1.13;0.73;;;11.90;58.00;;;;;;5061939;28;20038;-91
2022/04/16 04:03:27;;;;;;;2.45;1.00;;;11.90;57.90;;;;;;5081199;28;20047;-90
2022/04/16 04:05:56;;;;;;;1.08;0.70;;;11.90;58.00;;;;;;5051332;28;20036;-86
2022/04/16 04:08:23;;;;;;;1.58;0.68;;;11.90;58.10;;;;;;5100754;28;20032;-89
2022/04/16 04:10:49;;;;;;;1.40;0.70;;;11.90;58.10;;;;;;5069244;28;20499;-88
2022/04/16 04:13:16;;;;;;;1.35;0.85;;;11.80;58.00;;;;;;5077462;28;20060;-83
2022/04/16 04:15:43;;;;;;;0.88;0.65;;;11.90;58.00;;;;;;5031838;28;20049;-84
2022/04/16 04:18:09;;;;;;;1.17;0.40;;;11.90;57.90;;;;;;5064879;28;20497;-86
2022/04/16 04:20:35;;;;;;;2.45;0.60;;;11.90;57.90;;;;;;5056302;28;20438;-86
2022/04/16 04:23:03;;;;;;;1.25;0.50;;;11.80;57.80;;;;;;5076033;28;20063;-88
2022/04/16 04:25:29;;;;;;;1.55;0.50;;;11.80;57.90;;;;;;5067712;28;20527;-88
2022/04/16 04:27:55;;;;;;;0.60;0.57;;;11.80;57.80;;;;;;5083658;28;20138;-88
2022/04/16 04:30:22;;;;;;;1.25;0.40;;;11.80;57.80;;;;;;5086684;28;20123;-83
2022/04/16 04:32:48;;;;;;;0.52;0.50;;;11.80;57.80;;;;;;5081798;28;20024;-87
2022/04/16 04:35:14;;;;;;;0.50;0.50;;;11.80;57.80;;;;;;5087140;28;20036;-85
2022/04/16 04:37:42;;;;;;;1.00;0.57;;;11.80;57.80;;;;;;5083618;28;20028;-87
2022/04/16 04:40:09;;;;;;;0.68;0.40;;;11.80;57.80;;;;;;5097551;28;20040;-86
2022/04/16 04:42:36;;;;;;;0.80;0.43;;;11.70;57.80;;;;;;5121207;28;20077;-87
2022/04/16 04:45:14;;;;;;;0.70;0.50;;;11.80;57.80;;;;;;5100171;28;20031;-90
2022/04/16 04:47:40;;;;;;;1.13;0.57;;;11.70;57.80;;;;;;5108599;28;20040;-87
2022/04/16 04:50:07;;;;;;;0.93;0.50;;;11.70;57.80;;;;;;5092027;28;20044;-86
2022/04/16 04:52:36;;;;;;;1.17;0.50;;;11.70;57.90;;;;;;5098676;28;20103;-92
2022/04/16 04:55:05;;;;;;;0.63;0.50;;;11.60;57.80;;;;;;5107597;28;20047;-91
2022/04/16 04:57:31;;;;;;;1.48;0.40;;;11.70;57.90;;;;;;5079771;28;20028;-87
2022/04/16 04:59:57;;;;;;;0.70;0.40;;;11.70;57.90;;;;;;5075818;28;20055;-88
2022/04/16 05:02:23;;;;;;;0.77;0.52;;;11.60;57.90;;;;;;5089348;28;20058;-88
2022/04/16 05:04:49;;;;;;;0.70;0.43;;;11.60;57.90;;;;;;5075132;28;20039;-88
2022/04/16 05:07:15;;;;;;;0.40;0.30;;;11.60;57.90;;;;;;5074186;28;20050;-89
2022/04/16 05:09:41;;;;;;;1.00;0.45;;;11.50;57.90;;;;;;5096180;28;20050;-86
2022/04/16 05:12:10;;;;;;;0.35;0.28;;;11.60;58.60;;;;;;5088707;28;20028;-91
2022/04/16 05:14:36;;;;;;;1.45;0.32;;;11.60;58.00;;;;;;5067811;28;20039;-85
2022/04/16 05:17:02;;;;;;;0.47;0.47;;;11.60;57.90;;;;;;5089651;28;20086;-83
2022/04/16 05:19:29;;;;;;;0.40;0.30;;;11.60;57.90;;;;;;5086236;28;20043;-84
2022/04/16 05:21:55;;;;;;;0.95;0.60;;;11.60;57.90;;;;;;5082905;28;20033;-82
2022/04/16 05:24:21;;;;;;;1.77;0.68;;;11.60;57.80;;;;;;5084566;28;20418;-77
2022/04/16 05:26:47;;;;;;;0.40;0.40;;;11.60;57.90;;;;;;5070363;28;20084;-81
2022/04/16 05:29:14;;;;;;;2.97;0.60;;;11.60;57.80;;;;;;5067185;28;20108;-81
2022/04/16 05:31:41;;;;;;;0.55;0.40;;;11.60;57.90;;;;;;5084341;28;20044;-82
2022/04/16 05:34:18;;;;;;;0.60;0.60;;;11.60;57.90;;;;;;5083802;28;20735;-81
2022/04/16 05:36:49;;;;;;;0.60;0.50;;;11.50;58.00;;;;;;5082846;28;20032;-81
2022/04/16 05:39:16;;;;;;;0.82;0.57;;;11.50;58.00;;;;;;5099384;28;20028;-82
2022/04/16 05:41:42;;;;;;;0.50;0.50;;;11.50;58.10;;;;;;5111844;28;20502;-82
2022/04/16 05:44:08;;;;;;;1.15;0.40;;;11.50;58.10;;;;;;5099791;28;20066;-81
2022/04/16 05:46:34;;;;;;;1.55;0.57;;;11.50;58.10;;;;;;5105689;28;20457;-81
2022/04/16 05:49:00;;;;;;;0.60;0.60;;;11.50;58.20;;;;;;5084250;28;20028;-84
2022/04/16 05:51:27;;;;;;;1.70;0.30;;;11.50;58.10;;;;;;5070562;28;20020;-81
2022/04/16 05:53:53;;;;;;;0.68;0.60;;;11.50;58.10;;;;;;5088779;28;20487;-82
2022/04/16 05:56:21;;;;;;;0.73;0.65;;;11.40;58.10;;;;;;5074025;28;20032;-82
2022/04/16 05:58:47;;;;;;;0.80;0.50;;;11.40;58.10;;;;;;5081250;28;20067;-81
2022/04/16 06:01:13;;;;;;;0.50;0.50;;;11.50;58.10;;;;;;5080218;28;20040;-81
2022/04/16 06:03:40;;;;;;;0.60;0.50;;;11.50;58.10;;;;;;5067395;28;20166;-79
2022/04/16 06:06:07;;;;;;;0.50;0.50;;;11.40;58.00;;;;;;5083644;28;20055;-80
2022/04/16 06:08:33;;;;;;;0.70;0.60;;;11.50;58.10;;;;;;5078742;28;20036;-80
2022/04/16 06:10:59;;;;;;;0.70;0.70;;;11.50;58.10;;;;;;5082234;28;20443;-80
2022/04/16 06:13:25;;;;;;;0.75;0.57;;;11.40;58.20;;;;;;5083950;28;20059;-81
2022/04/16 06:15:51;;;;;;;0.63;0.63;;;11.50;58.30;;;;;;5087960;28;20035;-81
2022/04/16 06:18:18;;;;;;;0.50;0.50;;;11.50;58.20;;;;;;5069711;28;20177;-86
2022/04/16 06:20:44;;;;;;;0.60;0.60;;;11.40;58.20;;;;;;5072163;28;20126;-84
2022/04/16 06:23:10;;;;;;;0.82;0.60;;;11.40;58.30;;;;;;5087214;28;20502;-83
2022/04/16 06:25:36;;;;;;;0.65;0.65;;;11.40;58.30;;;;;;5068205;28;20039;-85
2022/04/16 06:28:02;;;;;;;0.90;0.73;;;11.40;58.50;;;;;;5077676;28;20036;-83
2022/04/16 06:30:29;;;;;;;0.55;0.55;;;11.40;58.50;;;;;;5066235;28;20124;-82
2022/04/16 06:32:55;;;;;;;2.15;0.60;;;11.40;58.60;;;;;;5082013;28;20119;-83
2022/04/16 06:35:21;;;;;;;0.85;0.85;;;11.40;58.80;;;;;;5081787;28;20040;-83
2022/04/16 06:37:47;;;;;;;1.15;0.55;;;11.40;58.90;;;;;;5081226;28;20040;-83
2022/04/16 06:40:15;;;;;;;0.65;0.50;;;11.40;59.00;;;;;;5079049;28;20044;-84
2022/04/16 06:42:41;;;;;;;0.88;0.68;;;11.40;58.80;;;;;;5073602;28;20028;-86
2022/04/16 06:45:10;;;;;;;1.25;0.40;;;11.40;58.80;;;;;;5079996;28;20085;-85
2022/04/16 06:47:36;;;;;;;0.50;0.50;;;11.40;58.90;;;;;;5074343;28;20056;-81
2022/04/16 06:50:04;;;;;;;1.48;0.60;;;11.40;58.90;;;;;;5078008;28;20036;-84
2022/04/16 06:52:30;;;;;;;1.15;0.52;;;11.40;58.90;;;;;;5074006;28;20170;-83
2022/04/16 06:54:57;;;;;;;0.45;0.45;;;11.40;58.90;;;;;;5063793;28;20520;-84
2022/04/16 06:57:24;;;;;;;0.68;0.47;;;11.40;58.90;;;;;;5082946;28;20032;-86
2022/04/16 06:59:51;;;;;;;3.60;0.82;;;11.40;58.80;;;;;;5083614;28;20036;-90
2022/04/16 07:02:17;;;;;;;0.60;0.60;;;11.30;58.70;;;;;;5082514;28;20044;-91
2022/04/16 07:04:43;;;;;;;0.40;0.40;;;11.40;58.80;;;;;;5055837;28;20031;-89
2022/04/16 07:07:09;;;;;;;0.75;0.73;;;11.40;58.80;;;;;;5091218;28;20032;-89
2022/04/16 07:09:38;;;;;;;1.35;0.90;;;11.40;58.80;;;;;;5089612;28;20489;-88
2022/04/16 07:12:09;;;;;;;0.80;0.80;;;11.40;58.60;;;;;;5052506;28;20524;-89
2022/04/16 07:14:40;;;;;;;0.75;0.65;;;11.40;58.70;;;;;;5071324;28;20036;-86
2022/04/16 07:17:07;;;;;;;0.82;0.80;;;11.40;58.70;;;;;;5066597;28;20040;-86
2022/04/16 07:19:33;;;;;;;1.48;0.60;;;11.40;58.90;;;;;;5085455;28;20332;-86
2022/04/16 07:22:00;;;;;;;0.70;0.50;;;11.40;59.10;;;;;;5069137;28;20036;-87
2022/04/16 07:24:26;;;;;;;0.73;0.60;;;11.40;59.10;;;;;;5051951;28;20101;-83
2022/04/16 07:26:54;;;;;;;0.68;0.50;;;11.40;58.90;;;;;;5085853;28;20040;-80
2022/04/16 07:29:24;;;;;;;1.67;0.63;;;11.40;58.80;;;;;;5068012;28;20502;-81
2022/04/16 07:31:52;;;;;;;0.95;0.75;;;11.40;58.90;;;;;;5067790;28;20036;-82
2022/04/16 07:34:18;;;;;;;0.82;0.82;;;11.40;59.10;;;;;;5083334;28;20128;-83
2022/04/16 07:36:45;;;;;;;0.73;0.73;;;11.40;59.10;;;;;;5051082;28;20036;-81
2022/04/16 07:39:12;;;;;;;1.27;1.05;;;11.40;59.20;;;;;;5064550;28;20134;-86
2022/04/16 07:41:38;;;;;;;1.00;0.80;;;11.40;59.30;;;;;;5048804;28;20041;-82
2022/04/16 07:44:05;;;;;;;0.88;0.80;;;11.40;59.40;;;;;;5062272;28;20031;-81
2022/04/16 07:46:35;;;;;;;1.08;0.60;;;11.40;59.30;;;;;;5080898;28;20040;-82
2022/04/16 07:49:02;;;;;;;1.25;0.60;;;11.40;59.40;;;;;;5067857;28;20506;-83
2022/04/16 07:51:29;;;;;;;1.52;0.80;;;11.40;59.40;;;;;;5081146;28;20039;-82
2022/04/16 07:53:56;;;;;;;0.77;0.65;;;11.40;59.20;;;;;;5093060;28;20067;-83
2022/04/16 07:56:23;;;;;;;0.80;0.70;;;11.40;59.20;;;;;;5050484;28;20035;-82
2022/04/16 07:58:50;;;;;;;0.82;0.65;;;11.40;59.40;;;;;;5065965;28;20032;-82
2022/04/16 08:01:16;;;;;;;1.00;0.90;;;11.40;59.20;;;;;;5062243;28;20029;-82
2022/04/16 08:03:43;;;;;;;1.02;0.68;;;11.40;59.30;;;;;;5063355;28;20203;-80
2022/04/16 08:06:09;;;;;;;2.10;0.82;;;11.40;59.20;;;;;;5052267;28;20085;-81
2022/04/16 08:08:35;;;;;;;5.13;1.15;;;11.40;59.40;;;;;;5064448;28;20698;-81
2022/04/16 08:11:00;;;;;;;0.60;0.60;;;11.40;59.10;;;;;;5059220;28;20036;-81
2022/04/16 08:13:27;;;;;;;0.60;0.60;;;11.40;58.90;;;;;;5063859;28;20214;-82
2022/04/16 08:15:53;;;;;;;0.95;0.70;;;11.40;58.90;;;;;;5068590;28;20044;-82
2022/04/16 08:18:18;;;;;;;1.00;0.52;;;11.40;59.00;;;;;;5050750;28;20035;-83
2022/04/16 08:20:44;;;;;;;1.00;0.90;;;11.40;59.00;;;;;;5030236;28;20302;-82
2022/04/16 08:23:11;;;;;;;0.73;0.73;;;11.30;59.10;;;;;;5066099;28;20508;-82
2022/04/16 08:28:04;;;;;;;1.15;0.80;;;11.40;59.30;;;;;;5067242;28;20098;-81
2022/04/16 08:30:31;;;;;;;0.60;0.60;;;11.30;59.30;;;;;;5083239;28;20566;-81
2022/04/16 08:32:57;;;;;;;0.75;0.60;;;11.40;59.20;;;;;;5085242;28;20510;-81
2022/04/16 08:35:23;;;;;;;2.03;0.60;;;11.30;59.20;;;;;;5083273;28;20090;-82
2022/04/16 08:37:50;;;;;;;0.80;0.70;;;11.30;59.20;;;;;;5051886;28;20039;-80
2022/04/16 08:40:17;;;;;;;0.73;0.73;;;11.30;59.10;;;;;;5080490;28;20074;-82
2022/04/16 08:42:48;;;;;;;0.70;0.63;;;11.30;59.10;;;;;;5065869;28;20055;-80
2022/04/16 08:45:15;;;;;;;0.80;0.80;;;11.30;59.10;;;;;;5099903;28;20097;-82
2022/04/16 08:47:42;;;;;;;1.35;0.90;;;11.30;59.20;;;;;;5080135;28;20086;-81
2022/04/16 08:50:11;;;;;;;0.73;0.73;;;11.30;59.20;;;;;;5067881;28;20499;-82
2022/04/16 08:52:38;;;;;;;1.38;0.77;;;11.30;59.30;;;;;;5062312;28;20083;-82
2022/04/16 08:55:07;;;;;;;1.00;0.80;;;11.30;59.10;;;;;;5031030;28;20036;-83
2022/04/16 08:57:33;;;;;;;2.38;0.90;;;11.30;59.00;;;;;;5059494;28;20149;-81
2022/04/16 09:00:00;;;;;;;1.67;0.95;;;11.30;59.00;;;;;;5060271;28;20028;-81
2022/04/16 09:02:27;;;;;;;0.70;0.70;;;11.30;58.90;;;;;;5059730;28;20420;-81
2022/04/16 09:05:09;;;;;;;0.80;0.80;;;11.20;59.00;;;;;;5040371;28;20033;-82
2022/04/16 09:07:46;;;;;;;0.88;0.80;;;11.30;59.00;;;;;;5068190;28;20040;-80
2022/04/16 09:10:12;;;;;;;0.73;0.73;;;11.20;58.90;;;;;;5079043;28;20128;-81
2022/04/16 09:12:40;;;;;;;0.88;0.70;;;11.20;59.00;;;;;;5075691;28;20397;-81
2022/04/16 09:15:08;;;;;;;1.08;1.00;;;11.20;58.90;;;;;;5084425;28;20082;-81
2022/04/16 09:17:34;;;;;;;0.73;0.73;;;11.20;58.90;;;;;;5081203;28;20543;-81
2022/04/16 09:20:00;;;;;;;0.88;0.70;;;11.20;58.90;;;;;;5066003;28;20509;-82
2022/04/16 09:22:34;;;;;;;0.88;0.80;;;11.20;58.80;;;;;;5084403;28;20459;-82
2022/04/16 09:25:00;;;;;;;0.93;0.93;;;11.20;58.90;;;;;;5075525;28;20070;-82
2022/04/16 09:27:43;;;;;;;0.80;0.73;;;11.20;59.00;;;;;;5067109;28;20506;-82
2022/04/16 09:30:10;;;;;;;0.88;0.82;;;11.30;59.00;;;;;;5065072;28;20024;-82
2022/04/16 09:32:45;;;;;;;1.15;1.05;;;11.20;58.80;;;;;;5095311;28;20514;-82
2022/04/16 09:35:40;;;;;;;1.65;1.15;;;11.30;58.90;;;;;;5078960;28;20040;-84
2022/04/16 09:38:07;;;;;;;0.90;0.90;;;11.30;59.00;;;;;;5072192;28;20028;-82
2022/04/16 09:40:35;;;;;;;0.73;0.73;;;11.30;58.80;;;;;;5079457;28;20502;-81
2022/04/16 09:43:03;;;;;;;1.08;0.98;;;11.30;59.00;;;;;;5061824;28;20040;-83
2022/04/16 09:45:30;;;;;;;1.48;1.38;;;11.30;58.90;;;;;;5030306;28;20403;-81
2022/04/16 09:47:57;;;;;;;0.95;0.90;;;11.30;58.90;;;;;;5063749;28;20552;-81
2022/04/16 09:50:25;;;;;;;1.20;1.10;;;11.30;58.90;;;;;;5095952;28;20043;-81
2022/04/16 09:52:57;;;;;;;1.35;1.20;;;11.30;58.80;;;;;;5082900;28;20468;-81
2022/04/16 09:55:25;;;;;;;0.90;0.90;;;11.30;58.90;;;;;;5027232;28;20548;-80
2022/04/16 09:58:01;;;;;;;1.70;1.02;;;11.30;59.10;;;;;;5056917;28;20115;-82
2022/04/16 10:00:29;;;;;;;1.50;1.20;;;11.30;59.00;;;;;;5082081;28;20035;-82
2022/04/16 10:02:56;;;;;;;0.95;0.95;;;11.30;58.90;;;;;;5085054;28;20048;-82
2022/04/16 10:05:23;;;;;;;1.05;0.95;;;11.40;59.00;;;;;;5080405;28;20029;-81
2022/04/16 10:07:50;;;;;;;1.00;0.98;;;11.40;58.90;;;;;;5084518;28;20561;-82
2022/04/16 10:10:25;;;;;;;0.90;0.90;;;11.40;58.80;;;;;;5065010;28;20043;-82
2022/04/16 10:13:04;;;;;;;0.98;0.98;;;11.40;58.50;;;;;;5083516;28;20035;-82
2022/04/16 10:15:48;;;;;;;1.83;0.88;;;11.30;58.10;;;;;;5084258;28;20024;-82
2022/04/16 10:18:17;;;;;;;0.68;0.68;;;11.30;57.90;;;;;;5070086;28;20039;-81
2022/04/16 10:21:14;;;;;;;1.67;1.30;;;11.30;57.90;;;;;;5068720;28;20041;-82
2022/04/16 10:23:41;;;;;;;1.05;0.90;;;11.20;58.10;;;;;;5068203;28;20036;-82
2022/04/16 10:26:12;;;;;;;0.80;0.80;;;11.20;58.00;;;;;;5071013;28;20043;-82
2022/04/16 10:28:53;;;;;;;1.23;1.10;;;11.20;58.10;;;;;;5048043;28;20033;-82
2022/04/16 10:31:48;;;;;;;1.13;1.00;;;11.20;58.20;;;;;;5065388;28;20040;-82
2022/04/16 10:34:16;;;;;;;0.90;0.90;;;11.20;58.10;;;;;;5037568;28;20043;-83
2022/04/16 10:36:52;;;;;;;0.75;0.70;;;11.20;58.00;;;;;;5052094;28;20551;-82
2022/04/16 10:39:23;;;;;;;1.67;0.70;;;11.20;58.10;;;;;;5086640;28;21140;-82
2022/04/16 10:41:56;;;;;;;1.08;0.98;;;11.20;58.10;;;;;;5101648;28;20460;-82
2022/04/16 10:44:24;;;;;;;1.05;1.00;;;11.20;58.10;;;;;;5080652;28;20574;-82
2022/04/16 10:46:51;;;;;;;0.85;0.85;;;11.20;58.20;;;;;;5069230;28;20041;-82
2022/04/16 10:49:19;;;;;;;1.05;1.05;;;11.20;58.10;;;;;;5073225;28;20068;-80
2022/04/16 10:51:46;;;;;;;0.80;0.80;;;11.20;58.00;;;;;;5082459;28;20039;-82
2022/04/16 10:54:15;;;;;;;1.40;1.30;;;11.20;58.00;;;;;;5085825;28;20490;-84
2022/04/16 10:56:52;;;;;;;1.10;1.00;;;11.20;57.80;;;;;;5053296;28;20562;-82
2022/04/16 10:59:18;;;;;;;0.88;0.80;;;11.10;57.70;;;;;;5081680;28;20040;-85
2022/04/16 11:01:53;;;;;;;1.20;0.90;;;11.10;57.90;;;;;;5085342;28;20032;-85
2022/04/16 11:04:20;;;;;;;1.05;0.95;;;11.10;58.00;;;;;;5082444;28;20039;-83
2022/04/16 11:06:51;;;;;;;1.27;0.95;;;11.10;57.90;;;;;;5076652;28;20037;-85
2022/04/16 11:09:20;;;;;;;1.10;1.00;;;11.10;57.80;;;;;;5084526;28;20039;-84
2022/04/16 11:11:51;;;;;;;1.00;1.00;;;11.10;57.80;;;;;;5081358;28;20050;-85
2022/04/16 11:14:18;;;;;;;1.35;0.70;;;11.10;57.80;;;;;;5071719;28;20032;-85
2022/04/16 11:16:45;;;;;;;1.10;1.08;;;11.10;57.80;;;;;;5062987;28;20527;-85
2022/04/16 11:19:18;;;;;;;1.83;0.90;;;11.10;57.70;;;;;;5066589;28;20044;-93
2022/04/16 11:21:44;;;;;;;1.17;1.10;;;11.00;57.60;;;;;;5065708;28;20124;-87
2022/04/16 11:24:11;;;;;;;0.93;0.93;;;11.00;57.70;;;;;;5067886;28;20123;-86
2022/04/16 11:34:57;;;;;;;0.88;0.88;;;11.00;57.90;;;;;;5076871;28;20028;-85
2022/04/16 11:37:24;;;;;;;1.25;1.00;;;11.00;57.90;;;;;;5084279;28;20062;-84
2022/04/16 11:40:05;;;;;;;0.80;0.80;;;11.00;58.00;;;;;;5082593;28;20047;-84
2022/04/16 11:42:32;;;;;;;2.13;0.70;;;11.00;58.00;;;;;;5065852;28;20119;-85
2022/04/16 11:45:00;;;;;;;1.80;0.85;;;11.00;58.00;;;;;;5064796;28;20085;-83
2022/04/16 11:47:27;;;;;;;1.08;0.95;;;11.00;58.00;;;;;;5065778;28;20032;-87
2022/04/16 11:49:55;;;;;;;1.38;1.13;;;10.90;57.90;;;;;;5082123;28;20092;-87
2022/04/16 11:52:26;;;;;;;0.80;0.80;;;11.00;57.90;;;;;;5067141;28;20033;-82
2022/04/16 11:55:22;;;;;;;0.90;0.90;;;10.90;57.70;;;;;;5067998;28;20048;-84
2022/04/16 11:57:52;;;;;;;0.77;0.60;;;11.00;57.60;;;;;;5080898;28;20131;-85
2022/04/16 12:00:20;;;;;;;0.75;0.75;;;10.90;57.40;;;;;;5084999;28;20480;-84
2022/04/16 12:02:49;;;;;;;1.02;0.73;;;11.00;57.40;;;;;;5064980;28;20047;-84
2022/04/16 12:05:17;;;;;;;0.95;0.90;;;10.90;57.30;;;;;;5072475;28;20136;-84
2022/04/16 12:07:46;;;;;;;0.77;0.68;;;10.90;57.30;;;;;;5076008;28;20054;-84
2022/04/16 12:10:16;;;;;;;0.80;0.80;;;10.90;57.30;;;;;;5071232;28;20050;-81
2022/04/16 12:12:47;;;;;;;0.82;0.82;;;10.90;57.40;;;;;;5074923;28;20456;-85
2022/04/16 12:15:26;;;;;;;0.80;0.80;;;10.90;57.40;;;;;;5069732;28;20035;-85
2022/04/16 12:17:54;;;;;;;0.70;0.70;;;10.90;57.40;;;;;;5052511;28;20045;-80
2022/04/16 12:20:20;;;;;;;0.98;0.93;;;10.90;57.30;;;;;;5074934;28;20563;-81
2022/04/16 12:22:56;;;;;;;0.70;0.70;;;10.80;57.20;;;;;;5090338;28;20043;-80
2022/04/16 12:25:24;;;;;;;2.70;0.93;;;10.80;57.30;;;;;;5082576;28;20457;-81
2022/04/16 12:27:54;;;;;;;1.08;0.77;;;10.80;57.30;;;;;;5094317;28;20106;-80
2022/04/16 12:30:24;;;;;;;1.75;0.90;;;10.80;57.30;;;;;;5103552;28;20028;-81
2022/04/16 12:33:02;;;;;;;0.95;0.60;;;10.80;57.30;;;;;;5074934;28;20143;-81
2022/04/16 12:35:30;;;;;;;4.18;0.90;;;10.80;57.60;;;;;;5068456;28;20028;-81
2022/04/16 12:37:57;;;;;;;1.42;0.73;;;10.80;59.80;;;;;;5067108;28;20033;-81
2022/04/16 12:40:24;;;;;;;1.58;0.75;;;10.90;59.70;;;;;;5079234;28;20086;-80
2022/04/16 12:42:52;;;;;;;1.00;0.85;;;10.90;59.00;;;;;;5084920;28;20043;-81
2022/04/16 12:45:20;;;;;;;0.70;0.70;;;11.00;58.50;;;;;;5097917;28;20535;-81
2022/04/16 12:47:46;;;;;;;1.45;0.52;;;11.00;58.10;;;;;;5085180;28;20040;-81
2022/04/16 12:50:13;;;;;;;0.90;0.60;;;11.10;58.00;;;;;;5081291;28;20033;-82
2022/04/16 12:52:41;;;;;;;0.50;0.50;;;11.10;57.90;;;;;;5095536;28;20130;-83
2022/04/16 12:55:10;;;;;;;0.95;0.63;;;11.10;57.80;;;;;;5078599;28;20081;-84
2022/04/16 12:57:36;;;;;;;1.10;0.80;;;11.10;57.70;;;;;;5068342;28;20133;-82
2022/04/16 13:00:27;;;;;;;1.23;0.80;;;11.10;57.50;;;;;;5064659;28;20485;-85
2022/04/16 13:02:53;;;;;;;0.70;0.70;;;11.20;57.40;;;;;;5079351;28;20060;-84
2022/04/16 13:05:19;;;;;;;1.00;0.63;;;11.20;57.20;;;;;;5084108;28;20074;-84
2022/04/16 13:07:48;;;;;;;1.17;0.80;;;11.20;57.20;;;;;;5080965;28;20517;-84
2022/04/16 13:10:14;;;;;;;0.65;0.65;;;11.20;57.20;;;;;;5063212;28;20474;-83
2022/04/16 13:12:41;;;;;;;0.85;0.82;;;11.20;57.30;;;;;;5031593;28;20029;-82